PDA6116 UKWW-LEAL
Flight info
| Callsign | PDA6116 |
|---|---|
| Flight time | N/A |
| Altitude | 36000 |
| Route | TAKET M991 GOTRA DCT SIRSI M986 LONLA/N0440F360 DCT ETARO DCT DIMLO DCT BARPI/N0441F370 DCT TODNO DCT TORTU DCT ZETCO DCT SORAS N850 ADX Z237 OKITI M603 GERVU |
| Aircraft | B738/M-SDE2E3FGHIRWXY/LB1 |
Departure
| Time | 2026-05-06 12:23 |
|---|---|
| Airport | Vinnytsia/Gavyryshivka International Airport (UKWW) |
Arrival
| Time | N/A |
|---|---|
| Airport | Alicante-Elche Miguel Hernández Airport (LEAL) |
| Time | Latitude | Longitude | Altitude | Speed | Heading |
|---|---|---|---|---|---|
| 2026-05-06 11:55 | 49.24372 | 28.60656 | 983 ft | 0 kts | 229° |
| 2026-05-06 12:19 | 49.24371 | 28.60654 | 971 ft | 1 kts | 229° |
| 2026-05-06 12:20 | 49.24353 | 28.60632 | 980 ft | 6 kts | 206° |
| 2026-05-06 12:20 | 49.24316 | 28.60662 | 976 ft | 8 kts | 141° |
| 2026-05-06 12:20 | 49.24317 | 28.60750 | 977 ft | 12 kts | 47° |
| 2026-05-06 12:20 | 49.24387 | 28.60870 | 970 ft | 18 kts | 49° |
| 2026-05-06 12:21 | 49.24482 | 28.61015 | 969 ft | 17 kts | 17° |
| 2026-05-06 12:21 | 49.24597 | 28.60912 | 967 ft | 23 kts | 318° |
| 2026-05-06 12:21 | 49.24721 | 28.60741 | 965 ft | 26 kts | 317° |
| 2026-05-06 12:21 | 49.24860 | 28.60551 | 972 ft | 28 kts | 318° |
| 2026-05-06 12:22 | 49.25000 | 28.60362 | 972 ft | 21 kts | 319° |
| 2026-05-06 12:22 | 49.25081 | 28.60261 | 969 ft | 10 kts | 289° |
| 2026-05-06 12:22 | 49.25065 | 28.60250 | 968 ft | 3 kts | 165° |
| 2026-05-06 12:22 | 49.25049 | 28.60290 | 965 ft | 9 kts | 119° |
| 2026-05-06 12:23 | 49.24988 | 28.60379 | 972 ft | 30 kts | 140° |
| 2026-05-06 12:23 | 49.24624 | 28.60875 | 967 ft | 108 kts | 137° |
| 2026-05-06 12:23 | 49.23888 | 28.61866 | 1037 ft | 165 kts | 144° |
| 2026-05-06 12:23 | 49.22960 | 28.63001 | 1695 ft | 180 kts | 143° |
| 2026-05-06 12:24 | 49.22053 | 28.64166 | 2860 ft | 167 kts | 143° |
| 2026-05-06 12:24 | 49.21177 | 28.65446 | 3412 ft | 190 kts | 123° |
| 2026-05-06 12:24 | 49.20967 | 28.67584 | 3703 ft | 226 kts | 76° |
| 2026-05-06 12:24 | 49.21872 | 28.69687 | 3861 ft | 255 kts | 36° |
| 2026-05-06 12:25 | 49.23552 | 28.70612 | 4291 ft | 266 kts | 2° |
| 2026-05-06 12:25 | 49.25371 | 28.70065 | 4735 ft | 274 kts | 327° |
| 2026-05-06 12:25 | 49.26662 | 28.67996 | 5519 ft | 269 kts | 290° |
| 2026-05-06 12:25 | 49.27026 | 28.65234 | 6364 ft | 268 kts | 270° |
| 2026-05-06 12:26 | 49.27185 | 28.62398 | 7118 ft | 274 kts | 274° |
| 2026-05-06 12:26 | 49.27466 | 28.59517 | 7963 ft | 275 kts | 276° |
| 2026-05-06 12:26 | 49.27486 | 28.56590 | 8678 ft | 277 kts | 253° |
| 2026-05-06 12:26 | 49.26764 | 28.53875 | 9492 ft | 278 kts | 239° |
| 2026-05-06 12:27 | 49.25718 | 28.51288 | 9728 ft | 298 kts | 236° |
| 2026-05-06 12:27 | 49.24558 | 28.48648 | 9660 ft | 296 kts | 234° |
| 2026-05-06 12:27 | 49.23419 | 28.46060 | 9549 ft | 290 kts | 235° |
| 2026-05-06 12:27 | 49.22336 | 28.43548 | 9389 ft | 283 kts | 236° |
| 2026-05-06 12:28 | 49.21266 | 28.41034 | 9130 ft | 280 kts | 236° |
| 2026-05-06 12:28 | 49.20212 | 28.38544 | 9042 ft | 279 kts | 236° |
| 2026-05-06 12:28 | 49.19145 | 28.36026 | 9008 ft | 282 kts | 235° |
| 2026-05-06 12:28 | 49.18080 | 28.33521 | 8874 ft | 281 kts | 235° |
| 2026-05-06 12:29 | 49.16705 | 28.31474 | 8544 ft | 277 kts | 206° |
| 2026-05-06 12:29 | 49.14848 | 28.30906 | 8241 ft | 276 kts | 174° |
| 2026-05-06 12:29 | 49.13087 | 28.31997 | 7930 ft | 279 kts | 141° |
| 2026-05-06 12:29 | 49.11991 | 28.34426 | 7668 ft | 284 kts | 109° |
| 2026-05-06 12:30 | 49.11903 | 28.37405 | 7359 ft | 292 kts | 78° |
| 2026-05-06 12:30 | 49.12882 | 28.40096 | 7122 ft | 295 kts | 45° |
| 2026-05-06 12:30 | 49.14601 | 28.41733 | 6873 ft | 292 kts | 20° |
| 2026-05-06 12:30 | 49.16582 | 28.42400 | 6608 ft | 288 kts | 8° |
| 2026-05-06 12:31 | 49.18505 | 28.42941 | 6501 ft | 274 kts | 9° |
| 2026-05-06 12:31 | 49.20349 | 28.43420 | 6310 ft | 264 kts | 8° |
| 2026-05-06 12:31 | 49.22141 | 28.43773 | 6010 ft | 259 kts | 358° |
| 2026-05-06 12:31 | 49.23922 | 28.43581 | 5696 ft | 254 kts | 353° |
| 2026-05-06 12:32 | 49.25683 | 28.43347 | 5204 ft | 256 kts | 352° |
| 2026-05-06 12:32 | 49.27431 | 28.43119 | 4896 ft | 253 kts | 353° |
| 2026-05-06 12:32 | 49.29167 | 28.42882 | 4579 ft | 250 kts | 353° |
| 2026-05-06 12:32 | 49.30907 | 28.42637 | 4102 ft | 252 kts | 353° |
| 2026-05-06 12:33 | 49.32647 | 28.42600 | 3702 ft | 253 kts | 14° |
| 2026-05-06 12:33 | 49.34141 | 28.43919 | 3259 ft | 252 kts | 51° |
| 2026-05-06 12:33 | 49.34787 | 28.46323 | 3036 ft | 239 kts | 93° |
| 2026-05-06 12:33 | 49.34365 | 28.48630 | 2990 ft | 215 kts | 125° |
| 2026-05-06 12:34 | 49.33481 | 28.50291 | 2954 ft | 189 kts | 156° |
| 2026-05-06 12:34 | 49.32281 | 28.50907 | 2849 ft | 188 kts | 168° |
| 2026-05-06 12:34 | 49.31112 | 28.51747 | 2626 ft | 192 kts | 144° |
| 2026-05-06 12:34 | 49.30121 | 28.53124 | 2364 ft | 189 kts | 147° |
| 2026-05-06 12:35 | 49.29117 | 28.54385 | 2110 ft | 186 kts | 141° |
| 2026-05-06 12:35 | 49.28194 | 28.55765 | 1854 ft | 185 kts | 141° |
| 2026-05-06 12:35 | 49.27267 | 28.57125 | 1668 ft | 184 kts | 137° |
| 2026-05-06 12:35 | 49.26391 | 28.58487 | 1468 ft | 171 kts | 139° |
| 2026-05-06 12:36 | 49.25540 | 28.59687 | 1191 ft | 162 kts | 145° |
| 2026-05-06 12:36 | 49.24705 | 28.60770 | 982 ft | 146 kts | 141° |
| 2026-05-06 12:36 | 49.24060 | 28.61646 | 968 ft | 95 kts | 138° |
| 2026-05-06 12:36 | 49.23724 | 28.62102 | 969 ft | 43 kts | 138° |
| 2026-05-06 12:37 | 49.23632 | 28.62214 | 974 ft | 1 kts | 91° |
| 2026-05-06 12:37 | 49.23645 | 28.62219 | 974 ft | 4 kts | 356° |
| 2026-05-06 12:37 | 49.23709 | 28.62131 | 976 ft | 22 kts | 316° |
| 2026-05-06 12:37 | 49.23866 | 28.61896 | 967 ft | 41 kts | 319° |
| 2026-05-06 12:38 | 49.24110 | 28.61577 | 966 ft | 49 kts | 317° |
| 2026-05-06 12:38 | 49.24385 | 28.61199 | 971 ft | 54 kts | 317° |
| 2026-05-06 12:38 | 49.24657 | 28.60831 | 970 ft | 50 kts | 317° |
| 2026-05-06 12:38 | 49.24903 | 28.60496 | 976 ft | 44 kts | 317° |
| 2026-05-06 12:39 | 49.25067 | 28.60304 | 967 ft | 19 kts | 324° |
| 2026-05-06 12:39 | 49.25071 | 28.60259 | 969 ft | 3 kts | 146° |
| 2026-05-06 12:39 | 49.25069 | 28.60262 | 970 ft | 0 kts | 136° |
| 2026-05-06 12:41 | 49.25065 | 28.60268 | 968 ft | 7 kts | 136° |
| 2026-05-06 12:41 | 49.24831 | 28.60594 | 975 ft | 85 kts | 137° |
| 2026-05-06 12:42 | 49.24202 | 28.61451 | 977 ft | 154 kts | 138° |
| 2026-05-06 12:42 | 49.23332 | 28.62644 | 1532 ft | 167 kts | 143° |
| 2026-05-06 12:42 | 49.22449 | 28.63770 | 2420 ft | 173 kts | 146° |
| 2026-05-06 12:42 | 49.21483 | 28.64968 | 3035 ft | 193 kts | 143° |
| 2026-05-06 12:43 | 49.20661 | 28.66746 | 3255 ft | 229 kts | 106° |
| 2026-05-06 12:43 | 49.20825 | 28.69266 | 3584 ft | 254 kts | 64° |
| 2026-05-06 12:43 | 49.22058 | 28.71303 | 3899 ft | 276 kts | 27° |
| 2026-05-06 12:43 | 49.23941 | 28.72075 | 4443 ft | 287 kts | 358° |
| 2026-05-06 12:44 | 49.25833 | 28.71353 | 5416 ft | 279 kts | 326° |
| 2026-05-06 12:44 | 49.27253 | 28.69396 | 6267 ft | 274 kts | 300° |
| 2026-05-06 12:44 | 49.27958 | 28.66735 | 7053 ft | 270 kts | 275° |
| 2026-05-06 12:44 | 49.27985 | 28.63863 | 7746 ft | 272 kts | 262° |
| 2026-05-06 12:45 | 49.27724 | 28.60981 | 8580 ft | 274 kts | 260° |
| 2026-05-06 12:45 | 49.27402 | 28.58105 | 9263 ft | 282 kts | 259° |
| 2026-05-06 12:45 | 49.26690 | 28.52028 | 10421 ft | 303 kts | 259° |
| 2026-05-06 12:46 | 49.26308 | 28.48716 | 10595 ft | 327 kts | 258° |
| 2026-05-06 12:46 | 49.25906 | 28.45170 | 10802 ft | 349 kts | 259° |
| 2026-05-06 12:46 | 49.25491 | 28.41460 | 11338 ft | 357 kts | 259° |
| 2026-05-06 12:46 | 49.25074 | 28.37692 | 12037 ft | 361 kts | 259° |
| 2026-05-06 12:47 | 49.24657 | 28.33891 | 12740 ft | 364 kts | 259° |
| 2026-05-06 12:47 | 49.24242 | 28.30106 | 13443 ft | 368 kts | 259° |
| 2026-05-06 12:47 | 49.23817 | 28.26233 | 14115 ft | 371 kts | 259° |
| 2026-05-06 12:47 | 49.23387 | 28.22334 | 14791 ft | 373 kts | 259° |
| 2026-05-06 12:48 | 49.22954 | 28.18411 | 15437 ft | 376 kts | 259° |
| 2026-05-06 12:48 | 49.22514 | 28.14442 | 16023 ft | 380 kts | 258° |
| 2026-05-06 12:48 | 49.22072 | 28.10456 | 16760 ft | 380 kts | 258° |
| 2026-05-06 12:48 | 49.21630 | 28.06487 | 17489 ft | 380 kts | 258° |
| 2026-05-06 12:49 | 49.21183 | 28.02489 | 18064 ft | 384 kts | 258° |
| 2026-05-06 12:49 | 49.20729 | 27.98446 | 18604 ft | 388 kts | 259° |
| 2026-05-06 12:49 | 49.20276 | 27.94416 | 19075 ft | 391 kts | 258° |
| 2026-05-06 12:49 | 49.19813 | 27.90305 | 19617 ft | 393 kts | 258° |
| 2026-05-06 12:50 | 49.19346 | 27.86178 | 20207 ft | 395 kts | 259° |
| 2026-05-06 12:50 | 49.18874 | 27.82029 | 20732 ft | 397 kts | 259° |
| 2026-05-06 12:50 | 49.18399 | 27.77864 | 21270 ft | 399 kts | 259° |
| 2026-05-06 12:50 | 49.17920 | 27.73678 | 21782 ft | 401 kts | 259° |
| 2026-05-06 12:51 | 49.17439 | 27.69487 | 22435 ft | 399 kts | 258° |
| 2026-05-06 12:51 | 49.16961 | 27.65340 | 22807 ft | 405 kts | 258° |
| 2026-05-06 12:51 | 49.16469 | 27.61082 | 23157 ft | 411 kts | 259° |
| 2026-05-06 12:51 | 49.15967 | 27.56762 | 23532 ft | 415 kts | 258° |
| 2026-05-06 12:52 | 49.15460 | 27.52415 | 23970 ft | 416 kts | 259° |
| 2026-05-06 12:52 | 49.14952 | 27.48065 | 24410 ft | 416 kts | 259° |
| 2026-05-06 12:52 | 49.14441 | 27.43698 | 24734 ft | 420 kts | 259° |